Banks, Oregon
Current Conditions -  °F | °C
As of 9:53 AM on Saturday 25 Oct 2014 (Local Time) from KHIO Reporting Station
Overcast Overcast  
Wind Chill: 54°   Ceiling: 9000
Heat Index: 54°   Visibility: 10mi
Dew Point: 52°   Wind: 3mph
Humidity: 93%   Direction: 150°SSE
Pressure: 29.42"   Gusts: NA
Location:  45.62°N, 123.11°W
Report Text: KHIO 251653Z 15003KT 10SM OVC090 12/11 A2942 RMK AO2 SLP963 T01220111
Loading
Personal Weather Stations






























Interactive Weather Map
Tropical Storm Tracking
New forecast layout! Learn more

10-Day Weather Forecast

Advertisements
Track Severe Weather on mobile